createdAt,value
2022-08-21T00:00:20.325Z,17.34
2022-08-21T00:05:43.517Z,17.29
2022-08-21T00:10:36.446Z,17.38
2022-08-21T00:15:36.333Z,17.36
2022-08-21T00:20:36.293Z,17.29
2022-08-21T00:25:36.233Z,17.23
2022-08-21T00:30:36.157Z,17.05
2022-08-21T00:35:36.085Z,16.94
2022-08-21T00:40:36.029Z,16.90
2022-08-21T00:45:35.982Z,16.96
2022-08-21T00:50:35.914Z,16.91
2022-08-21T00:55:35.836Z,16.87
2022-08-21T01:00:35.757Z,16.81
2022-08-21T01:05:35.698Z,16.76
2022-08-21T01:10:35.625Z,16.72
2022-08-21T01:15:35.594Z,16.72
2022-08-21T01:20:35.507Z,16.65
2022-08-21T01:25:35.427Z,16.53
2022-08-21T01:30:35.361Z,16.42
2022-08-21T01:35:35.329Z,16.41
2022-08-21T01:40:35.210Z,16.38
2022-08-21T01:45:35.183Z,16.35
2022-08-21T01:50:35.100Z,16.33
2022-08-21T01:55:35.031Z,16.17
2022-08-21T02:00:34.997Z,16.08
2022-08-21T02:05:34.913Z,16.01
2022-08-21T02:10:34.834Z,15.88
2022-08-21T02:15:34.774Z,15.80
2022-08-21T02:20:34.727Z,15.83
2022-08-21T02:25:34.646Z,15.83
2022-08-21T02:30:34.569Z,15.80
2022-08-21T02:35:34.510Z,15.70
2022-08-21T02:40:34.696Z,15.64
2022-08-21T02:45:34.365Z,15.47
2022-08-21T02:50:34.307Z,15.42
2022-08-21T02:55:34.235Z,15.47
2022-08-21T03:00:34.184Z,15.42
2022-08-21T03:05:34.103Z,15.39
2022-08-21T03:10:34.046Z,15.43
2022-08-21T03:15:33.983Z,15.33
2022-08-21T03:20:33.897Z,15.21
2022-08-21T03:25:40.489Z,15.19
2022-08-21T03:30:34.784Z,15.17
2022-08-21T03:35:33.703Z,15.18
2022-08-21T03:40:33.640Z,15.25
2022-08-21T03:45:33.565Z,15.25
2022-08-21T03:50:33.505Z,15.21
2022-08-21T03:55:33.435Z,15.15
2022-08-21T04:00:33.358Z,15.10
2022-08-21T04:05:33.323Z,15.06
2022-08-21T04:10:33.226Z,15.02
2022-08-21T04:15:33.183Z,15.02
2022-08-21T04:20:33.315Z,15.00
2022-08-21T04:25:33.081Z,14.89
2022-08-21T04:30:32.978Z,14.89
2022-08-21T04:35:32.914Z,14.85
2022-08-21T04:40:32.829Z,14.79
2022-08-21T04:45:32.767Z,14.60
2022-08-21T04:50:32.697Z,14.65
2022-08-21T04:55:32.649Z,14.58
2022-08-21T05:00:32.574Z,14.59
2022-08-21T05:05:32.513Z,14.58
2022-08-21T05:10:32.514Z,14.65
2022-08-21T05:15:32.383Z,14.73
2022-08-21T05:20:32.308Z,14.91
2022-08-21T05:25:32.247Z,15.07
2022-08-21T05:30:32.149Z,15.15
2022-08-21T05:35:32.099Z,15.27
2022-08-21T05:40:32.091Z,15.39
2022-08-21T05:45:42.229Z,15.46
2022-08-21T05:50:33.759Z,15.58
2022-08-21T05:55:33.965Z,15.77
2022-08-21T06:00:46.601Z,15.95
2022-08-21T06:05:39.498Z,16.05
2022-08-21T06:10:39.456Z,16.17
2022-08-21T06:15:39.369Z,16.28
2022-08-21T06:20:39.275Z,16.36
2022-08-21T06:25:39.206Z,16.50
2022-08-21T06:30:39.149Z,16.68
2022-08-21T06:35:41.575Z,17.42
2022-08-21T06:40:43.847Z,18.78
2022-08-21T06:45:39.996Z,20.06
2022-08-21T06:50:38.892Z,21.06
2022-08-21T06:55:38.836Z,21.82
2022-08-21T07:00:38.835Z,22.94
2022-08-21T07:05:38.698Z,23.78
2022-08-21T07:10:38.718Z,24.55
2022-08-21T07:15:38.566Z,25.13
2022-08-21T07:20:38.501Z,26.23
2022-08-21T07:25:38.465Z,26.48
2022-08-21T07:30:38.396Z,27.08
2022-08-21T07:35:39.287Z,27.49
2022-08-21T07:40:38.249Z,27.73
2022-08-21T07:45:38.177Z,27.47
2022-08-21T07:50:38.150Z,28.07
2022-08-21T07:55:38.034Z,28.96
2022-08-21T08:00:38.031Z,29.16
2022-08-21T08:05:37.919Z,29.97
2022-08-21T08:10:37.866Z,29.66
2022-08-21T08:15:37.834Z,30.24
2022-08-21T08:20:37.729Z,31.15
2022-08-21T08:25:38.467Z,30.97
2022-08-21T08:30:37.598Z,30.92
2022-08-21T08:35:39.053Z,30.94
2022-08-21T08:41:06.305Z,31.74
2022-08-21T08:45:59.243Z,32.19
2022-08-21T08:50:59.217Z,32.68
2022-08-21T08:55:59.167Z,33.53
2022-08-21T09:00:59.088Z,33.50
2022-08-21T09:05:58.995Z,34.27
2022-08-21T09:10:58.934Z,33.67
2022-08-21T09:15:58.942Z,34.67
2022-08-21T09:20:58.780Z,34.51
2022-08-21T09:25:58.736Z,34.80
2022-08-21T09:30:58.730Z,35.18
2022-08-21T09:35:59.597Z,35.73
2022-08-21T09:40:58.716Z,34.16
2022-08-21T09:45:58.550Z,34.18
2022-08-21T09:50:58.409Z,35.74
2022-08-21T09:55:58.862Z,36.24
2022-08-21T10:00:58.360Z,37.08
2022-08-21T10:05:58.267Z,36.54
2022-08-21T10:10:58.157Z,37.21
2022-08-21T10:15:58.104Z,37.08
2022-08-21T10:20:58.056Z,37.02
2022-08-21T10:26:13.532Z,37.30
2022-08-21T10:30:58.936Z,36.42
2022-08-21T10:35:57.850Z,36.86
2022-08-21T10:40:57.789Z,36.61
2022-08-21T10:45:58.982Z,35.93
2022-08-21T10:50:57.688Z,36.51
2022-08-21T10:55:57.604Z,36.21
2022-08-21T11:00:57.593Z,36.99
2022-08-21T11:05:57.476Z,36.43
2022-08-21T11:10:59.391Z,36.58
2022-08-21T11:15:57.353Z,34.64
2022-08-21T11:20:57.360Z,34.11
2022-08-21T11:25:59.092Z,34.73
2022-08-21T11:30:57.190Z,34.95
2022-08-21T11:35:57.112Z,35.34
2022-08-21T11:40:57.041Z,34.97
2022-08-21T11:45:56.988Z,34.23
2022-08-21T11:50:56.905Z,33.52
2022-08-21T11:55:56.879Z,34.11
2022-08-21T12:00:57.082Z,32.53
2022-08-21T12:05:56.720Z,31.70
2022-08-21T12:10:56.659Z,33.83
2022-08-21T12:15:56.596Z,34.43
2022-08-21T12:20:56.527Z,34.50
2022-08-21T12:25:56.466Z,34.96
2022-08-21T12:30:58.191Z,34.39
2022-08-21T12:35:56.331Z,33.53
2022-08-21T12:40:56.278Z,33.95
2022-08-21T12:45:56.219Z,33.43
2022-08-21T12:50:56.175Z,33.37
2022-08-21T12:55:56.108Z,33.96
2022-08-21T13:00:56.062Z,34.25
2022-08-21T13:05:56.026Z,34.35
2022-08-21T13:10:55.916Z,33.83
2022-08-21T13:15:55.839Z,33.09
2022-08-21T13:20:55.808Z,31.74
2022-08-21T13:25:55.768Z,31.24
2022-08-21T13:30:55.670Z,30.83
2022-08-21T13:35:55.580Z,30.87
2022-08-21T13:40:55.534Z,30.44
2022-08-21T13:45:55.443Z,30.59
2022-08-21T13:50:55.517Z,30.30
2022-08-21T13:56:00.405Z,30.47
2022-08-21T14:00:55.260Z,29.81
2022-08-21T14:05:55.188Z,29.87
2022-08-21T14:10:57.579Z,29.41
2022-08-21T14:15:55.052Z,28.96
2022-08-21T14:20:55.009Z,28.66
2022-08-21T14:25:54.945Z,28.78
2022-08-21T14:30:54.871Z,28.59
2022-08-21T14:35:54.792Z,29.01
2022-08-21T14:40:54.740Z,29.35
2022-08-21T14:45:54.674Z,29.61
2022-08-21T14:50:59.789Z,29.86
2022-08-21T14:55:55.639Z,30.05
2022-08-21T15:00:54.490Z,29.86
2022-08-21T15:05:54.418Z,29.57
2022-08-21T15:11:11.138Z,29.27
2022-08-21T15:15:55.315Z,29.24
2022-08-21T15:20:54.422Z,29.27
2022-08-21T15:25:54.160Z,28.94
2022-08-21T15:30:54.104Z,28.79
2022-08-21T15:35:54.047Z,28.52
2022-08-21T15:40:54.104Z,28.45
2022-08-21T15:45:53.955Z,28.49
2022-08-21T15:50:53.858Z,28.45
2022-08-21T15:55:53.858Z,28.44
2022-08-21T16:00:53.726Z,28.39
2022-08-21T16:05:53.719Z,28.49
2022-08-21T16:10:53.632Z,28.47
2022-08-21T16:15:53.674Z,28.45
2022-08-21T16:20:53.453Z,28.42
2022-08-21T16:25:53.468Z,28.39
2022-08-21T16:30:53.380Z,28.37
2022-08-21T16:35:53.288Z,28.25
2022-08-21T16:40:53.205Z,28.02
2022-08-21T16:45:53.123Z,27.82
2022-08-21T16:50:53.102Z,27.77
2022-08-21T16:55:53.142Z,27.51
2022-08-21T17:00:53.042Z,27.35
2022-08-21T17:05:52.856Z,27.22
2022-08-21T17:10:52.818Z,27.10
2022-08-21T17:15:52.727Z,26.89
2022-08-21T17:20:52.679Z,26.66
2022-08-21T17:25:52.627Z,26.36
2022-08-21T17:30:52.531Z,26.06
2022-08-21T17:35:52.462Z,25.81
2022-08-21T17:40:52.403Z,25.69
2022-08-21T17:45:52.330Z,25.72
2022-08-21T17:50:52.314Z,25.68
2022-08-21T17:56:01.090Z,25.55
2022-08-21T18:00:54.072Z,25.40
2022-08-21T18:05:53.953Z,25.21
2022-08-21T18:10:53.959Z,24.91
2022-08-21T18:15:53.823Z,24.60
2022-08-21T18:20:53.799Z,24.45
2022-08-21T18:25:53.712Z,24.35
2022-08-21T18:30:53.665Z,24.14
2022-08-21T18:35:53.577Z,24.01
2022-08-21T18:40:55.994Z,23.93
2022-08-21T18:45:53.435Z,23.78
2022-08-21T18:50:53.394Z,23.63
2022-08-21T18:55:53.303Z,23.55
2022-08-21T19:00:53.274Z,23.54
2022-08-21T19:05:53.156Z,23.47
2022-08-21T19:10:53.104Z,23.34
2022-08-21T19:15:53.114Z,23.23
2022-08-21T19:20:52.950Z,23.15
2022-08-21T19:25:53.168Z,23.09
2022-08-21T19:30:52.844Z,22.96
2022-08-21T19:35:52.877Z,22.88
2022-08-21T19:40:52.705Z,22.83
2022-08-21T19:45:52.641Z,22.62
2022-08-21T19:50:52.556Z,22.51
2022-08-21T19:55:52.487Z,22.45
2022-08-21T20:00:52.503Z,22.38
2022-08-21T20:05:54.073Z,22.32
2022-08-21T20:10:52.294Z,22.23
2022-08-21T20:15:52.207Z,22.15
2022-08-21T20:20:52.528Z,22.04
2022-08-21T20:25:52.123Z,21.99
2022-08-21T20:30:52.050Z,21.93
2022-08-21T20:35:52.046Z,21.91
2022-08-21T20:40:51.957Z,21.91
2022-08-21T20:45:51.878Z,21.91
2022-08-21T20:50:51.761Z,21.88
2022-08-21T20:55:51.690Z,21.83
2022-08-21T21:00:51.908Z,21.72
2022-08-21T21:05:51.575Z,21.61
2022-08-21T21:10:51.546Z,21.52
2022-08-21T21:15:51.588Z,21.42
2022-08-21T21:20:51.381Z,21.35
2022-08-21T21:25:53.901Z,21.22
2022-08-21T21:30:55.610Z,21.18
2022-08-21T21:35:52.204Z,21.24
2022-08-21T21:40:51.140Z,21.24
2022-08-21T21:45:51.036Z,21.21
2022-08-21T21:50:50.995Z,21.14
2022-08-21T21:55:50.906Z,21.11
2022-08-21T22:00:52.189Z,21.06
2022-08-21T22:05:50.777Z,21.02
2022-08-21T22:10:50.705Z,20.90
2022-08-21T22:15:50.638Z,20.84
2022-08-21T22:20:50.564Z,20.85
2022-08-21T22:25:50.512Z,20.82
2022-08-21T22:31:18.072Z,20.77
2022-08-21T22:36:26.493Z,20.72
2022-08-21T22:41:18.947Z,20.74
2022-08-21T22:46:18.859Z,20.66
2022-08-21T22:51:18.800Z,20.47
2022-08-21T22:56:18.705Z,20.28
2022-08-21T23:01:18.628Z,20.16
2022-08-21T23:06:18.568Z,20.06
2022-08-21T23:11:19.205Z,19.91
2022-08-21T23:16:18.431Z,19.94
2022-08-21T23:21:18.429Z,20.00
2022-08-21T23:26:18.315Z,20.11
2022-08-21T23:31:18.243Z,20.18
2022-08-21T23:36:18.177Z,20.21
2022-08-21T23:41:20.037Z,20.11
2022-08-21T23:46:19.072Z,20.07
2022-08-21T23:51:18.992Z,19.92
2022-08-21T23:56:17.923Z,19.73
